Albany, NY

9:15 AM EST on November 27, 2014 (GMT -0500)
Wellington Ave | Change Station
CLOSE
Current Station
Personal Weather Station
Location: Albany, NY
Elevation: 260 ft
Nearby Weather Stations

Elev 260 ft 42.67 °N, 73.82 °W | Updated 6 seconds ago

Overcast
Overcast
32.0 °F
Feels Like 25 °F
N
8.1
Wind Variable Wind from NW
Gusts 8.1 mph

Today
High -- | Low -- °F
--% Chance of Precip.
Yesterday
High -- | Low -- °F
Precip. -- in
7:00 AM 4:24 PM
Waxing Crescent, 30% visible
Pressure 30.02 in
Visibility 10.0 miles
Clouds Few 1200 ft
Overcast 2800 ft
Windchill 25 °F
Dew Point 27 °F
Humidity 81%
Rainfall 0.00 in
Snow Depth Not available.
UV 0 out of 12
Pollen .10 out of 12
Air Quality Not available.
Flu Activity Not available.
METAR KALB 271351Z 32007KT 10SM FEW012 OVC028 M01/M03 A3001 RMK AO2 SLP165 T10061033

More Conditions Fewer Conditions

Pressure 30.02 in
Visibility 10.0 miles
Clouds Few 1200 ft
Overcast 2800 ft
Windchill 25 °F
Dew Point 27 °F
Humidity 81%
Rainfall 0.00 in
Snow Depth Not available.
UV 0 out of 12
Pollen .10 out of 12
Air Quality Not available.
Flu Activity Not available.
METAR KALB 271351Z 32007KT 10SM FEW012 OVC028 M01/M03 A3001 RMK AO2 SLP165 T10061033

More Conditions Fewer Conditions

10-Day Weather Forecast

Almanac

Astronomy

Nov. 27, 2014 Rise Set
Actual Time
Civil Twilight
Nautical Twilight
Astronomical Twilight
Moon
Length of Visible Light
Length of Day
Tomorrow will be .
, % of the Moon is Illuminated

Today's Extremes

State Highs State Lows

Community

WunderPhotos

Upload Photos

1,774,003 photos uploaded!

WunderBlogs® & News

Nearby

Air Quality

  Air Quality AQ Index Pollutant
Not available.

Snow Depth

Station Depth Elevation

Earthquake Activity

City Distance Mag. Time & Date
Minimum magnitude displayed is 2.5.

Coastal Water Temperatures

Place Temperature

Nearby Weather Stations